sensor_id;sensor_type;location;lat;lon;timestamp;pressure;altitude;pressure_sealevel;temperature;humidity
68508;BME280;55510;49.560;19.090;2023-02-05T00:00:58;97910.44;;;-5.62;84.70
68508;BME280;55510;49.560;19.090;2023-02-05T00:04:13;97915.44;;;-5.72;84.62
68508;BME280;55510;49.560;19.090;2023-02-05T00:07:14;97910.41;;;-5.75;84.73
68508;BME280;55510;49.560;19.090;2023-02-05T00:10:16;97921.19;;;-5.81;85.00
68508;BME280;55510;49.560;19.090;2023-02-05T00:13:16;97930.31;;;-5.88;85.40
68508;BME280;55510;49.560;19.090;2023-02-05T00:16:19;97922.97;;;-5.82;86.21
68508;BME280;55510;49.560;19.090;2023-02-05T00:19:20;97926.38;;;-5.81;86.29
68508;BME280;55510;49.560;19.090;2023-02-05T00:22:21;97930.97;;;-5.85;85.98
68508;BME280;55510;49.560;19.090;2023-02-05T00:25:21;97937.69;;;-5.82;86.39
68508;BME280;55510;49.560;19.090;2023-02-05T00:28:22;97941.22;;;-5.83;86.35
68508;BME280;55510;49.560;19.090;2023-02-05T00:31:23;97943.81;;;-5.83;86.38
68508;BME280;55510;49.560;19.090;2023-02-05T00:34:24;97944.75;;;-5.84;86.55
68508;BME280;55510;49.560;19.090;2023-02-05T00:37:25;97950.88;;;-5.85;85.96
68508;BME280;55510;49.560;19.090;2023-02-05T00:40:25;97951.06;;;-5.88;85.94
68508;BME280;55510;49.560;19.090;2023-02-05T00:43:26;97953.34;;;-5.97;86.08
68508;BME280;55510;49.560;19.090;2023-02-05T00:46:27;97950.25;;;-6.02;86.27
68508;BME280;55510;49.560;19.090;2023-02-05T00:49:27;97947.13;;;-6.07;86.67
68508;BME280;55510;49.560;19.090;2023-02-05T00:52:28;97943.81;;;-6.09;86.88
68508;BME280;55510;49.560;19.090;2023-02-05T00:55:29;97945.66;;;-6.11;87.04
68508;BME280;55510;49.560;19.090;2023-02-05T00:58:30;97944.00;;;-6.12;87.28
68508;BME280;55510;49.560;19.090;2023-02-05T01:01:31;97943.28;;;-6.14;87.97
68508;BME280;55510;49.560;19.090;2023-02-05T01:04:32;97941.00;;;-6.06;88.14
68508;BME280;55510;49.560;19.090;2023-02-05T01:07:32;97938.44;;;-6.06;88.41
68508;BME280;55510;49.560;19.090;2023-02-05T01:10:34;97928.97;;;-6.07;88.81
68508;BME280;55510;49.560;19.090;2023-02-05T01:13:35;97932.81;;;-6.00;88.87
68508;BME280;55510;49.560;19.090;2023-02-05T01:16:36;97924.91;;;-5.98;89.21
68508;BME280;55510;49.560;19.090;2023-02-05T01:19:36;97930.72;;;-5.94;89.10
68508;BME280;55510;49.560;19.090;2023-02-05T01:22:37;97932.41;;;-5.93;89.24
68508;BME280;55510;49.560;19.090;2023-02-05T01:25:38;97928.66;;;-5.89;89.55
68508;BME280;55510;49.560;19.090;2023-02-05T01:28:39;97932.19;;;-5.90;89.56
68508;BME280;55510;49.560;19.090;2023-02-05T01:31:40;97926.06;;;-5.89;90.01
68508;BME280;55510;49.560;19.090;2023-02-05T01:34:40;97938.00;;;-5.87;90.19
68508;BME280;55510;49.560;19.090;2023-02-05T01:37:41;97928.47;;;-5.86;89.97
68508;BME280;55510;49.560;19.090;2023-02-05T01:40:42;97925.97;;;-5.88;90.34
68508;BME280;55510;49.560;19.090;2023-02-05T01:43:42;97928.56;;;-5.88;90.66
68508;BME280;55510;49.560;19.090;2023-02-05T01:46:45;97927.72;;;-5.88;90.82
68508;BME280;55510;49.560;19.090;2023-02-05T01:49:46;97923.28;;;-5.86;90.82
68508;BME280;55510;49.560;19.090;2023-02-05T01:52:47;97925.78;;;-5.85;90.77
68508;BME280;55510;49.560;19.090;2023-02-05T01:55:54;97928.25;;;-5.83;90.73
68508;BME280;55510;49.560;19.090;2023-02-05T01:59:00;97931.25;;;-5.89;90.50
68508;BME280;55510;49.560;19.090;2023-02-05T02:02:03;97935.72;;;-5.91;90.52
68508;BME280;55510;49.560;19.090;2023-02-05T02:05:12;97937.38;;;-5.90;90.60
68508;BME280;55510;49.560;19.090;2023-02-05T02:08:13;97946.94;;;-5.91;90.63
68508;BME280;55510;49.560;19.090;2023-02-05T02:11:16;97937.38;;;-5.90;90.72
68508;BME280;55510;49.560;19.090;2023-02-05T02:14:18;97936.66;;;-5.92;90.66
68508;BME280;55510;49.560;19.090;2023-02-05T02:17:19;97936.56;;;-5.91;90.67
68508;BME280;55510;49.560;19.090;2023-02-05T02:20:22;97942.47;;;-5.89;90.82
68508;BME280;55510;49.560;19.090;2023-02-05T02:30:31;97946.09;;;-5.91;90.81
68508;BME280;55510;49.560;19.090;2023-02-05T02:43:13;97931.19;;;-6.01;90.72
68508;BME280;55510;49.560;19.090;2023-02-05T02:46:22;97949.31;;;-6.01;91.01
68508;BME280;55510;49.560;19.090;2023-02-05T02:49:34;97954.59;;;-6.02;90.89
68508;BME280;55510;49.560;19.090;2023-02-05T02:52:38;97962.28;;;-6.01;91.47
68508;BME280;55510;49.560;19.090;2023-02-05T02:55:41;97957.88;;;-6.00;91.44
68508;BME280;55510;49.560;19.090;2023-02-05T02:58:48;97965.56;;;-5.99;91.61
68508;BME280;55510;49.560;19.090;2023-02-05T03:01:56;97969.81;;;-5.98;91.36
68508;BME280;55510;49.560;19.090;2023-02-05T03:05:01;97968.25;;;-6.00;91.20
68508;BME280;55510;49.560;19.090;2023-02-05T03:08:07;97976.16;;;-6.02;91.22
68508;BME280;55510;49.560;19.090;2023-02-05T03:11:13;97971.81;;;-6.01;91.52
68508;BME280;55510;49.560;19.090;2023-02-05T03:14:14;97973.66;;;-6.03;91.41
68508;BME280;55510;49.560;19.090;2023-02-05T03:17:15;97972.00;;;-6.04;91.21
68508;BME280;55510;49.560;19.090;2023-02-05T03:20:25;97972.19;;;-6.07;91.39
68508;BME280;55510;49.560;19.090;2023-02-05T03:23:26;97972.31;;;-6.09;91.42
68508;BME280;55510;49.560;19.090;2023-02-05T03:26:30;97981.56;;;-6.05;91.83
68508;BME280;55510;49.560;19.090;2023-02-05T03:29:35;97977.19;;;-6.04;92.01
68508;BME280;55510;49.560;19.090;2023-02-05T03:45:55;97971.78;;;-6.14;92.61
68508;BME280;55510;49.560;19.090;2023-02-05T03:52:16;97983.81;;;-6.13;92.51
68508;BME280;55510;49.560;19.090;2023-02-05T03:55:22;97979.56;;;-6.14;92.52
68508;BME280;55510;49.560;19.090;2023-02-05T03:58:35;97983.09;;;-6.15;92.33
68508;BME280;55510;49.560;19.090;2023-02-05T04:01:37;97987.53;;;-6.17;91.98
68508;BME280;55510;49.560;19.090;2023-02-05T04:04:38;97989.19;;;-6.16;92.17
68508;BME280;55510;49.560;19.090;2023-02-05T04:07:39;97978.00;;;-6.17;91.99
68508;BME280;55510;49.560;19.090;2023-02-05T04:10:40;97978.00;;;-6.17;91.99
68508;BME280;55510;49.560;19.090;2023-02-05T04:13:40;97982.53;;;-6.20;91.85
68508;BME280;55510;49.560;19.090;2023-02-05T04:16:41;97982.72;;;-6.23;91.47
68508;BME280;55510;49.560;19.090;2023-02-05T04:19:42;97980.31;;;-6.27;91.65
68508;BME280;55510;49.560;19.090;2023-02-05T04:22:42;97974.72;;;-6.33;91.49
68508;BME280;55510;49.560;19.090;2023-02-05T04:25:43;97984.44;;;-6.37;91.06
68508;BME280;55510;49.560;19.090;2023-02-05T04:28:44;97993.25;;;-6.39;90.57
68508;BME280;55510;49.560;19.090;2023-02-05T04:31:44;97992.59;;;-6.43;90.44
68508;BME280;55510;49.560;19.090;2023-02-05T04:34:45;97997.44;;;-6.51;89.89
68508;BME280;55510;49.560;19.090;2023-02-05T04:37:46;97992.53;;;-6.56;90.03
68508;BME280;55510;49.560;19.090;2023-02-05T04:40:47;97995.44;;;-6.61;89.67
68508;BME280;55510;49.560;19.090;2023-02-05T04:43:47;97988.75;;;-6.65;89.79
68508;BME280;55510;49.560;19.090;2023-02-05T04:46:48;97989.88;;;-6.69;89.53
68508;BME280;55510;49.560;19.090;2023-02-05T04:49:49;98000.41;;;-6.72;89.94
68508;BME280;55510;49.560;19.090;2023-02-05T04:52:49;97991.84;;;-6.73;89.59
68508;BME280;55510;49.560;19.090;2023-02-05T04:55:50;97999.88;;;-6.77;89.20
68508;BME280;55510;49.560;19.090;2023-02-05T04:58:51;97994.88;;;-6.80;89.51
68508;BME280;55510;49.560;19.090;2023-02-05T05:01:52;97992.47;;;-6.83;89.20
68508;BME280;55510;49.560;19.090;2023-02-05T05:04:52;97993.41;;;-6.85;89.38
68508;BME280;55510;49.560;19.090;2023-02-05T05:07:53;97995.25;;;-6.87;89.32
68508;BME280;55510;49.560;19.090;2023-02-05T05:10:54;97996.28;;;-6.89;89.46
68508;BME280;55510;49.560;19.090;2023-02-05T05:13:54;97999.69;;;-6.89;89.34
68508;BME280;55510;49.560;19.090;2023-02-05T05:16:55;97999.69;;;-6.89;89.37
68508;BME280;55510;49.560;19.090;2023-02-05T05:19:56;98011.81;;;-6.89;89.61
68508;BME280;55510;49.560;19.090;2023-02-05T05:22:56;98018.63;;;-6.88;89.38
68508;BME280;55510;49.560;19.090;2023-02-05T05:25:57;98020.41;;;-6.89;89.40
68508;BME280;55510;49.560;19.090;2023-02-05T05:28:58;98026.31;;;-6.87;89.09
68508;BME280;55510;49.560;19.090;2023-02-05T05:31:58;98028.91;;;-6.87;89.62
68508;BME280;55510;49.560;19.090;2023-02-05T05:34:59;98032.97;;;-6.82;89.70
68508;BME280;55510;49.560;19.090;2023-02-05T05:38:00;98040.00;;;-6.85;89.34
68508;BME280;55510;49.560;19.090;2023-02-05T05:41:01;98045.25;;;-6.86;89.09
68508;BME280;55510;49.560;19.090;2023-02-05T05:44:20;98052.22;;;-6.87;88.70
68508;BME280;55510;49.560;19.090;2023-02-05T05:47:21;98057.41;;;-6.87;88.79
68508;BME280;55510;49.560;19.090;2023-02-05T05:50:21;98059.97;;;-6.87;89.14
68508;BME280;55510;49.560;19.090;2023-02-05T05:53:22;98066.91;;;-6.87;89.13
68508;BME280;55510;49.560;19.090;2023-02-05T05:56:23;98074.78;;;-6.89;89.24
68508;BME280;55510;49.560;19.090;2023-02-05T05:59:24;98074.78;;;-6.89;89.07
68508;BME280;55510;49.560;19.090;2023-02-05T06:02:24;98086.06;;;-6.90;88.93
68508;BME280;55510;49.560;19.090;2023-02-05T06:05:25;98092.97;;;-6.90;88.79
68508;BME280;55510;49.560;19.090;2023-02-05T06:08:26;98092.97;;;-6.90;89.30
68508;BME280;55510;49.560;19.090;2023-02-05T06:11:27;98089.47;;;-6.89;89.52
68508;BME280;55510;49.560;19.090;2023-02-05T06:14:27;98091.97;;;-6.88;89.57
68508;BME280;55510;49.560;19.090;2023-02-05T06:17:28;98094.44;;;-6.86;89.50
68508;BME280;55510;49.560;19.090;2023-02-05T06:20:29;98089.94;;;-6.82;89.73
68508;BME280;55510;49.560;19.090;2023-02-05T06:23:31;98095.13;;;-6.82;89.85
68508;BME280;55510;49.560;19.090;2023-02-05T06:26:32;98115.81;;;-6.82;89.59
68508;BME280;55510;49.560;19.090;2023-02-05T06:29:33;98111.50;;;-6.82;89.80
68508;BME280;55510;49.560;19.090;2023-02-05T06:32:33;98116.69;;;-6.82;89.78
68508;BME280;55510;49.560;19.090;2023-02-05T06:35:34;98117.50;;;-6.81;89.66
68508;BME280;55510;49.560;19.090;2023-02-05T06:38:34;98124.16;;;-6.77;90.18
68508;BME280;55510;49.560;19.090;2023-02-05T06:41:35;98127.41;;;-6.74;90.00
68508;BME280;55510;49.560;19.090;2023-02-05T06:44:36;98130.44;;;-6.67;89.87
68508;BME280;55510;49.560;19.090;2023-02-05T06:47:37;98135.63;;;-6.67;89.64
68508;BME280;55510;49.560;19.090;2023-02-05T06:50:37;98132.78;;;-6.62;89.57
68508;BME280;55510;49.560;19.090;2023-02-05T06:53:38;98142.31;;;-6.63;89.47
68508;BME280;55510;49.560;19.090;2023-02-05T06:56:39;98145.06;;;-6.66;89.15
68508;BME280;55510;49.560;19.090;2023-02-05T06:59:40;98149.50;;;-6.68;89.15
68508;BME280;55510;49.560;19.090;2023-02-05T07:02:40;98147.94;;;-6.71;89.12
68508;BME280;55510;49.560;19.090;2023-02-05T07:05:41;98156.88;;;-6.76;89.01
68508;BME280;55510;49.560;19.090;2023-02-05T07:08:42;98152.56;;;-6.76;89.05
68508;BME280;55510;49.560;19.090;2023-02-05T07:11:43;98154.13;;;-6.73;89.29
68508;BME280;55510;49.560;19.090;2023-02-05T07:14:44;98154.84;;;-6.71;89.43
68508;BME280;55510;49.560;19.090;2023-02-05T07:17:45;98157.84;;;-6.63;89.57
68508;BME280;55510;49.560;19.090;2023-02-05T07:20:47;98152.50;;;-6.60;89.17
68508;BME280;55510;49.560;19.090;2023-02-05T07:23:48;98158.09;;;-6.53;89.18
68508;BME280;55510;49.560;19.090;2023-02-05T07:26:50;98163.22;;;-6.51;88.91
68508;BME280;55510;49.560;19.090;2023-02-05T07:29:51;98159.31;;;-6.44;88.64
68508;BME280;55510;49.560;19.090;2023-02-05T07:32:51;98158.22;;;-6.40;88.38
68508;BME280;55510;49.560;19.090;2023-02-05T07:35:52;98169.25;;;-6.36;87.99
68508;BME280;55510;49.560;19.090;2023-02-05T07:38:53;98163.69;;;-6.30;88.06
68508;BME280;55510;49.560;19.090;2023-02-05T07:41:54;98160.97;;;-6.29;86.86
68508;BME280;55510;49.560;19.090;2023-02-05T07:44:55;98165.59;;;-6.19;87.62
68508;BME280;55510;49.560;19.090;2023-02-05T07:47:56;98165.78;;;-6.08;87.84
68508;BME280;55510;49.560;19.090;2023-02-05T07:50:57;98167.41;;;-5.92;87.87
68508;BME280;55510;49.560;19.090;2023-02-05T07:53:58;98187.28;;;-5.78;87.82
68508;BME280;55510;49.560;19.090;2023-02-05T07:57:00;98192.94;;;-5.72;86.97
68508;BME280;55510;49.560;19.090;2023-02-05T08:00:02;98190.56;;;-5.62;86.56
68508;BME280;55510;49.560;19.090;2023-02-05T08:03:03;98194.63;;;-5.58;85.77
68508;BME280;55510;49.560;19.090;2023-02-05T08:06:05;98191.78;;;-5.53;85.83
68508;BME280;55510;49.560;19.090;2023-02-05T08:09:06;98194.09;;;-5.48;86.45
68508;BME280;55510;49.560;19.090;2023-02-05T08:12:07;98187.66;;;-5.43;86.16
68508;BME280;55510;49.560;19.090;2023-02-05T08:15:08;98194.16;;;-5.50;84.79
68508;BME280;55510;49.560;19.090;2023-02-05T08:18:09;98191.78;;;-5.53;85.48
68508;BME280;55510;49.560;19.090;2023-02-05T08:21:10;98199.56;;;-5.53;85.42
68508;BME280;55510;49.560;19.090;2023-02-05T08:24:10;98196.97;;;-5.53;85.43
68508;BME280;55510;49.560;19.090;2023-02-05T08:27:11;98204.94;;;-5.56;85.71
68508;BME280;55510;49.560;19.090;2023-02-05T08:30:14;98203.28;;;-5.57;85.64
68508;BME280;55510;49.560;19.090;2023-02-05T08:33:15;98203.28;;;-5.57;84.79
68508;BME280;55510;49.560;19.090;2023-02-05T08:36:17;98200.09;;;-5.48;85.51
68508;BME280;55510;49.560;19.090;2023-02-05T08:39:17;98203.19;;;-5.28;86.39
68508;BME280;55510;49.560;19.090;2023-02-05T08:42:18;98207.84;;;-5.06;86.31
68508;BME280;55510;49.560;19.090;2023-02-05T08:45:19;98200.59;;;-4.88;85.51
68508;BME280;55510;49.560;19.090;2023-02-05T08:48:19;98198.47;;;-4.55;85.59
68508;BME280;55510;49.560;19.090;2023-02-05T08:51:20;98203.34;;;-4.12;84.92
68508;BME280;55510;49.560;19.090;2023-02-05T08:54:23;98208.28;;;-3.83;82.77
68508;BME280;55510;49.560;19.090;2023-02-05T08:57:28;98211.56;;;-3.30;82.28
68508;BME280;55510;49.560;19.090;2023-02-05T09:00:29;98218.63;;;-2.95;79.08
68508;BME280;55510;49.560;19.090;2023-02-05T09:03:31;98217.44;;;-2.44;79.05
68508;BME280;55510;49.560;19.090;2023-02-05T09:06:32;98216.88;;;-2.36;75.51
68508;BME280;55510;49.560;19.090;2023-02-05T09:09:33;98221.75;;;-2.31;74.80
68508;BME280;55510;49.560;19.090;2023-02-05T09:12:38;98226.41;;;-2.59;74.46
68508;BME280;55510;49.560;19.090;2023-02-05T09:15:41;98226.38;;;-2.82;75.06
68508;BME280;55510;49.560;19.090;2023-02-05T09:18:42;98226.03;;;-3.02;75.61
68508;BME280;55510;49.560;19.090;2023-02-05T09:21:43;98227.25;;;-3.19;75.98
68508;BME280;55510;49.560;19.090;2023-02-05T09:24:43;98228.38;;;-3.35;76.30
68508;BME280;55510;49.560;19.090;2023-02-05T09:27:44;98226.22;;;-3.54;76.85
68508;BME280;55510;49.560;19.090;2023-02-05T09:30:45;98222.63;;;-3.64;77.62
68508;BME280;55510;49.560;19.090;2023-02-05T09:33:45;98218.84;;;-3.47;78.31
68508;BME280;55510;49.560;19.090;2023-02-05T09:36:46;98222.50;;;-3.25;78.03
68508;BME280;55510;49.560;19.090;2023-02-05T09:39:47;98219.66;;;-3.22;78.12
68508;BME280;55510;49.560;19.090;2023-02-05T09:43:02;98222.25;;;-3.22;76.88
68508;BME280;55510;49.560;19.090;2023-02-05T09:46:13;98225.88;;;-3.12;74.63
68508;BME280;55510;49.560;19.090;2023-02-05T09:49:29;98222.69;;;-2.80;75.02
68508;BME280;55510;49.560;19.090;2023-02-05T09:52:35;98216.44;;;-2.77;74.08
68508;BME280;55510;49.560;19.090;2023-02-05T09:55:42;98223.91;;;-2.97;73.78
68508;BME280;55510;49.560;19.090;2023-02-05T09:58:48;98220.47;;;-3.09;74.56
68508;BME280;55510;49.560;19.090;2023-02-05T10:01:59;98206.75;;;-2.99;74.27
68508;BME280;55510;49.560;19.090;2023-02-05T10:05:00;98214.59;;;-2.88;71.89
68508;BME280;55510;49.560;19.090;2023-02-05T10:08:15;98212.41;;;-2.70;70.74
68508;BME280;55510;49.560;19.090;2023-02-05T10:11:33;98225.28;;;-2.80;70.35
68508;BME280;55510;49.560;19.090;2023-02-05T10:34:31;98231.84;;;-3.97;71.71
68508;BME280;55510;49.560;19.090;2023-02-05T10:37:37;98214.78;;;-4.14;73.43
68508;BME280;55510;49.560;19.090;2023-02-05T10:40:42;98215.22;;;-4.20;74.05
68508;BME280;55510;49.560;19.090;2023-02-05T10:47:21;98207.09;;;-4.29;74.54
68508;BME280;55510;49.560;19.090;2023-02-05T10:53:28;98210.09;;;-4.22;74.72
68508;BME280;55510;49.560;19.090;2023-02-05T10:56:30;98205.31;;;-4.15;74.90
68508;BME280;55510;49.560;19.090;2023-02-05T10:59:35;98213.75;;;-4.12;74.42
68508;BME280;55510;49.560;19.090;2023-02-05T11:02:41;98210.94;;;-3.96;75.93
68508;BME280;55510;49.560;19.090;2023-02-05T11:05:44;98209.84;;;-3.80;75.22
68508;BME280;55510;49.560;19.090;2023-02-05T11:08:46;98205.38;;;-3.78;74.80
68508;BME280;55510;49.560;19.090;2023-02-05T11:11:53;98188.50;;;-3.72;75.75
68508;BME280;55510;49.560;19.090;2023-02-05T11:14:59;98191.72;;;-3.69;75.28
68508;BME280;55510;49.560;19.090;2023-02-05T11:18:06;98191.00;;;-3.71;75.39
68508;BME280;55510;49.560;19.090;2023-02-05T11:21:08;98187.44;;;-3.70;75.19
68508;BME280;55510;49.560;19.090;2023-02-05T11:24:24;98195.19;;;-3.81;75.80
68508;BME280;55510;49.560;19.090;2023-02-05T11:27:28;98190.28;;;-3.86;75.72
68508;BME280;55510;49.560;19.090;2023-02-05T11:30:33;98188.75;;;-3.88;76.13
68508;BME280;55510;49.560;19.090;2023-02-05T11:33:35;98188.03;;;-3.90;76.37
68508;BME280;55510;49.560;19.090;2023-02-05T11:36:58;98180.97;;;-3.64;77.22
68508;BME280;55510;49.560;19.090;2023-02-05T11:39:59;98177.09;;;-3.10;74.84
68508;BME280;55510;49.560;19.090;2023-02-05T11:43:06;98171.94;;;-2.98;73.82
68508;BME280;55510;49.560;19.090;2023-02-05T11:46:08;98169.81;;;-2.93;73.15
68508;BME280;55510;49.560;19.090;2023-02-05T11:49:22;98166.03;;;-3.00;73.11
68508;BME280;55510;49.560;19.090;2023-02-05T11:52:27;98175.84;;;-3.28;72.76
68508;BME280;55510;49.560;19.090;2023-02-05T11:55:32;98172.34;;;-3.65;73.56
68508;BME280;55510;49.560;19.090;2023-02-05T11:58:33;98181.03;;;-3.90;74.29
68508;BME280;55510;49.560;19.090;2023-02-05T12:01:35;98177.94;;;-4.08;75.43
68508;BME280;55510;49.560;19.090;2023-02-05T12:04:43;98184.63;;;-4.17;77.02
68508;BME280;55510;49.560;19.090;2023-02-05T12:07:57;98177.56;;;-4.28;77.35
68508;BME280;55510;49.560;19.090;2023-02-05T12:11:03;98182.84;;;-4.29;78.62
68508;BME280;55510;49.560;19.090;2023-02-05T12:14:17;98178.50;;;-4.29;78.36
68508;BME280;55510;49.560;19.090;2023-02-05T12:17:41;98176.41;;;-4.37;78.77
68508;BME280;55510;49.560;19.090;2023-02-05T12:24:43;98178.63;;;-4.56;77.83
68508;BME280;55510;49.560;19.090;2023-02-05T12:28:18;98176.53;;;-4.64;79.11
68508;BME280;55510;49.560;19.090;2023-02-05T12:45:02;98178.69;;;-4.84;77.11
68508;BME280;55510;49.560;19.090;2023-02-05T12:58:35;98170.59;;;-4.79;77.21
68508;BME280;55510;49.560;19.090;2023-02-05T13:08:54;98175.53;;;-4.89;75.39
68508;BME280;55510;49.560;19.090;2023-02-05T13:12:00;98166.28;;;-4.93;74.46
68508;BME280;55510;49.560;19.090;2023-02-05T13:18:16;98167.09;;;-5.05;72.96
68508;BME280;55510;49.560;19.090;2023-02-05T13:21:20;98173.97;;;-5.04;72.88
68508;BME280;55510;49.560;19.090;2023-02-05T13:24:44;98176.00;;;-4.69;72.63
68508;BME280;55510;49.560;19.090;2023-02-05T13:31:46;98169.66;;;-3.76;69.00
68508;BME280;55510;49.560;19.090;2023-02-05T13:34:50;98160.97;;;-3.64;69.62
68508;BME280;55510;49.560;19.090;2023-02-05T13:38:06;98166.63;;;-3.70;68.61
68508;BME280;55510;49.560;19.090;2023-02-05T14:01:02;98166.53;;;-4.70;72.86
68508;BME280;55510;49.560;19.090;2023-02-05T14:04:06;98176.28;;;-4.87;73.13
68508;BME280;55510;49.560;19.090;2023-02-05T14:07:23;98189.34;;;-5.01;74.13
68508;BME280;55510;49.560;19.090;2023-02-05T14:10:35;98179.97;;;-5.17;75.46
68508;BME280;55510;49.560;19.090;2023-02-05T14:13:37;98192.09;;;-5.30;75.59
68508;BME280;55510;49.560;19.090;2023-02-05T14:16:38;98186.72;;;-5.42;76.27
68508;BME280;55510;49.560;19.090;2023-02-05T14:22:58;98190.19;;;-5.56;76.40
68508;BME280;55510;49.560;19.090;2023-02-05T14:35:42;98188.97;;;-5.77;78.46
68508;BME280;55510;49.560;19.090;2023-02-05T14:39:17;98188.31;;;-5.81;77.40
68508;BME280;55510;49.560;19.090;2023-02-05T14:42:19;98187.91;;;-5.75;78.10
68508;BME280;55510;49.560;19.090;2023-02-05T14:45:22;98189.59;;;-5.74;77.12
68508;BME280;55510;49.560;19.090;2023-02-05T14:48:29;98187.75;;;-5.72;77.60
68508;BME280;55510;49.560;19.090;2023-02-05T15:00:46;98187.13;;;-5.90;76.97
68508;BME280;55510;49.560;19.090;2023-02-05T15:03:46;98191.00;;;-5.97;77.14
68508;BME280;55510;49.560;19.090;2023-02-05T15:06:47;98196.38;;;-6.00;77.43
68508;BME280;55510;49.560;19.090;2023-02-05T15:09:58;98203.44;;;-6.02;78.13
68508;BME280;55510;49.560;19.090;2023-02-05T15:13:15;98201.16;;;-6.07;77.83
68508;BME280;55510;49.560;19.090;2023-02-05T15:16:19;98198.66;;;-6.08;78.57
68508;BME280;55510;49.560;19.090;2023-02-05T15:19:20;98197.81;;;-6.09;79.09
68508;BME280;55510;49.560;19.090;2023-02-05T15:22:23;98196.25;;;-6.12;79.11
68508;BME280;55510;49.560;19.090;2023-02-05T15:31:39;98203.38;;;-6.30;79.62
68508;BME280;55510;49.560;19.090;2023-02-05T15:34:48;98200.50;;;-6.39;79.34
68508;BME280;55510;49.560;19.090;2023-02-05T15:37:54;98196.16;;;-6.39;80.76
68508;BME280;55510;49.560;19.090;2023-02-05T15:40:56;98188.38;;;-6.39;81.07
68508;BME280;55510;49.560;19.090;2023-02-05T15:43:59;98189.38;;;-6.42;81.05
68508;BME280;55510;49.560;19.090;2023-02-05T15:47:21;98193.19;;;-6.47;81.43
68508;BME280;55510;49.560;19.090;2023-02-05T15:50:22;98185.03;;;-6.56;81.82
68508;BME280;55510;49.560;19.090;2023-02-05T15:56:34;98193.91;;;-6.60;83.15
68508;BME280;55510;49.560;19.090;2023-02-05T15:59:35;98186.41;;;-6.64;83.17
68508;BME280;55510;49.560;19.090;2023-02-05T16:02:36;98184.00;;;-6.67;84.08
68508;BME280;55510;49.560;19.090;2023-02-05T16:05:51;98186.66;;;-6.69;84.21
68508;BME280;55510;49.560;19.090;2023-02-05T16:08:52;98184.94;;;-6.68;84.97
68508;BME280;55510;49.560;19.090;2023-02-05T16:11:53;98193.63;;;-6.70;85.09
68508;BME280;55510;49.560;19.090;2023-02-05T16:15:04;98198.81;;;-6.70;85.57
68508;BME280;55510;49.560;19.090;2023-02-05T16:21:50;98207.69;;;-6.74;86.51
68508;BME280;55510;49.560;19.090;2023-02-05T16:24:57;98212.94;;;-6.75;86.83
68508;BME280;55510;49.560;19.090;2023-02-05T16:28:04;98217.19;;;-6.74;87.34
68508;BME280;55510;49.560;19.090;2023-02-05T16:31:07;98210.44;;;-6.77;87.41
68508;BME280;55510;49.560;19.090;2023-02-05T16:34:16;98214.88;;;-6.79;87.86
68508;BME280;55510;49.560;19.090;2023-02-05T16:37:18;98219.22;;;-6.79;87.69
68508;BME280;55510;49.560;19.090;2023-02-05T16:40:38;98215.88;;;-6.81;87.94
68508;BME280;55510;49.560;19.090;2023-02-05T16:43:40;98221.16;;;-6.83;88.18
68508;BME280;55510;49.560;19.090;2023-02-05T16:46:41;98227.41;;;-6.87;88.16
68508;BME280;55510;49.560;19.090;2023-02-05T16:49:43;98225.09;;;-6.92;87.61
68508;BME280;55510;49.560;19.090;2023-02-05T16:52:54;98231.19;;;-6.93;88.19
68508;BME280;55510;49.560;19.090;2023-02-05T16:56:00;98233.97;;;-6.96;87.98
68508;BME280;55510;49.560;19.090;2023-02-05T16:59:15;98230.63;;;-6.98;87.94
68508;BME280;55510;49.560;19.090;2023-02-05T17:02:35;98245.41;;;-7.00;88.05
68508;BME280;55510;49.560;19.090;2023-02-05T17:05:36;98236.16;;;-7.04;87.84
68508;BME280;55510;49.560;19.090;2023-02-05T17:08:38;98240.00;;;-7.11;87.35
68508;BME280;55510;49.560;19.090;2023-02-05T17:11:41;98252.88;;;-7.26;86.78
68508;BME280;55510;49.560;19.090;2023-02-05T17:18:20;98263.97;;;-7.56;87.05
68508;BME280;55510;49.560;19.090;2023-02-05T17:21:28;98268.88;;;-7.67;87.67
68508;BME280;55510;49.560;19.090;2023-02-05T17:24:30;98264.22;;;-7.77;87.81
68508;BME280;55510;49.560;19.090;2023-02-05T17:27:35;98259.38;;;-7.83;88.28
68508;BME280;55510;49.560;19.090;2023-02-05T17:30:36;98266.53;;;-7.88;88.77
68508;BME280;55510;49.560;19.090;2023-02-05T17:33:37;98261.06;;;-7.99;87.94
68508;BME280;55510;49.560;19.090;2023-02-05T17:36:37;98266.06;;;-8.12;88.10
68508;BME280;55510;49.560;19.090;2023-02-05T17:39:39;98271.94;;;-8.26;88.15
68508;BME280;55510;49.560;19.090;2023-02-05T17:42:40;98274.28;;;-8.39;88.15
68508;BME280;55510;49.560;19.090;2023-02-05T17:45:41;98279.22;;;-8.51;88.15
68508;BME280;55510;49.560;19.090;2023-02-05T17:48:43;98284.75;;;-8.58;87.88
68508;BME280;55510;49.560;19.090;2023-02-05T17:51:44;98280.69;;;-8.64;88.67
68508;BME280;55510;49.560;19.090;2023-02-05T17:54:44;98277.31;;;-8.65;89.25
68508;BME280;55510;49.560;19.090;2023-02-05T17:57:47;98274.78;;;-8.66;89.19
68508;BME280;55510;49.560;19.090;2023-02-05T18:00:47;98272.00;;;-8.62;89.92
68508;BME280;55510;49.560;19.090;2023-02-05T18:03:48;98282.91;;;-8.56;89.98
68508;BME280;55510;49.560;19.090;2023-02-05T18:06:49;98282.91;;;-8.56;89.38
68508;BME280;55510;49.560;19.090;2023-02-05T18:09:50;98286.94;;;-8.51;90.06
68508;BME280;55510;49.560;19.090;2023-02-05T18:12:51;98279.78;;;-8.46;90.41
68508;BME280;55510;49.560;19.090;2023-02-05T18:15:52;98287.38;;;-8.42;90.34
68508;BME280;55510;49.560;19.090;2023-02-05T18:18:54;98274.25;;;-8.38;90.74
68508;BME280;55510;49.560;19.090;2023-02-05T18:21:54;98273.53;;;-8.41;90.64
68508;BME280;55510;49.560;19.090;2023-02-05T18:24:55;98278.50;;;-8.37;91.26
68508;BME280;55510;49.560;19.090;2023-02-05T18:27:56;98286.91;;;-8.33;91.53
68508;BME280;55510;49.560;19.090;2023-02-05T18:31:04;98285.16;;;-8.33;91.26
68508;BME280;55510;49.560;19.090;2023-02-05T18:34:06;98282.44;;;-8.30;91.52
68508;BME280;55510;49.560;19.090;2023-02-05T18:37:06;98291.59;;;-8.24;91.79
68508;BME280;55510;49.560;19.090;2023-02-05T18:40:08;98295.47;;;-8.15;91.87